Time;durP1;ratioP1;P1;durP2;ratioP2;P2;SDS_P1;SDS_P2;PMS_P1;PMS_P2;Temp;Humidity;BMP_temperature;BMP_pressure;BME280_temperature;BME280_humidity;BME280_pressure;Samples;Min_cycle;Max_cycle;Signal;HPM_P1;HPM_P2
2023/12/10 00:02:02;;;;;;;2.03;0.90;;;22.50;90.60;;;;;;6155315;23;20044;-69
2023/12/10 00:04:29;;;;;;;1.45;0.80;;;22.50;90.30;;;;;;6155602;23;20426;-69
2023/12/10 00:06:56;;;;;;;3.80;1.00;;;22.50;90.50;;;;;;6155181;23;20083;-69
2023/12/10 00:09:24;;;;;;;2.17;0.82;;;22.60;90.40;;;;;;6155163;23;20013;-69
2023/12/10 00:11:51;;;;;;;1.63;0.82;;;22.70;90.50;;;;;;6155426;23;20008;-69
2023/12/10 00:14:18;;;;;;;2.42;1.00;;;22.80;90.40;;;;;;6155207;23;20104;-69
2023/12/10 00:16:45;;;;;;;0.95;0.80;;;22.90;90.30;;;;;;6155107;23;20001;-69
2023/12/10 00:19:13;;;;;;;2.45;0.80;;;22.90;89.40;;;;;;6154929;23;20033;-69
2023/12/10 00:21:40;;;;;;;2.97;1.02;;;22.90;89.60;;;;;;6154951;23;20373;-69
2023/12/10 00:24:07;;;;;;;1.67;0.80;;;22.90;89.40;;;;;;6154848;23;20010;-69
2023/12/10 00:26:35;;;;;;;2.13;1.02;;;22.80;89.40;;;;;;6155119;23;20008;-69
2023/12/10 00:29:02;;;;;;;1.10;0.85;;;22.90;89.80;;;;;;6129162;23;20096;-70
2023/12/10 00:31:29;;;;;;;2.53;1.10;;;22.80;89.60;;;;;;6155303;23;20326;-69
2023/12/10 00:33:57;;;;;;;4.28;1.10;;;22.80;89.90;;;;;;6128972;23;20006;-69
2023/12/10 00:36:24;;;;;;;3.92;1.20;;;22.80;90.10;;;;;;6155209;23;20001;-69
2023/12/10 00:38:54;;;;;;;2.60;1.00;;;22.80;89.90;;;;;;6155205;23;20025;-68
2023/12/10 00:41:21;;;;;;;1.23;0.93;;;22.80;89.80;;;;;;6155094;23;20002;-69
2023/12/10 00:43:48;;;;;;;3.88;1.33;;;22.90;90.10;;;;;;6155015;23;20005;-68
2023/12/10 00:46:16;;;;;;;3.05;1.20;;;23.00;89.30;;;;;;6154360;23;20001;-70
2023/12/10 00:48:43;;;;;;;3.17;1.20;;;22.90;89.30;;;;;;6104520;23;20017;-70
2023/12/10 00:51:30;;;;;;;2.13;1.13;;;23.00;89.60;;;;;;6155204;23;20055;-69
2023/12/10 00:53:58;;;;;;;4.63;1.52;;;23.00;89.40;;;;;;6154952;23;19998;-69
2023/12/10 00:56:28;;;;;;;3.75;1.27;;;23.00;89.30;;;;;;6154562;23;20080;-69
2023/12/10 00:58:55;;;;;;;4.90;1.20;;;23.00;89.60;;;;;;6154929;23;20004;-69
2023/12/10 01:01:23;;;;;;;4.68;1.52;;;23.00;89.40;;;;;;6154594;23;20421;-69
2023/12/10 01:03:50;;;;;;;2.72;1.25;;;23.00;89.50;;;;;;6154731;23;20009;-69
2023/12/10 01:06:18;;;;;;;3.03;1.10;;;23.00;89.40;;;;;;6155094;23;20009;-70
2023/12/10 01:08:45;;;;;;;1.95;1.23;;;23.00;89.40;;;;;;6154142;23;20024;-69
2023/12/10 01:11:12;;;;;;;2.80;1.20;;;23.00;89.40;;;;;;6154609;23;20006;-69
2023/12/10 01:13:40;;;;;;;3.58;1.20;;;23.00;89.20;;;;;;6154625;23;20465;-69
2023/12/10 01:16:08;;;;;;;4.05;1.45;;;23.00;89.10;;;;;;6154950;23;20006;-69
2023/12/10 01:18:37;;;;;;;3.50;1.50;;;23.00;89.40;;;;;;6154153;23;20004;-69
2023/12/10 01:21:09;;;;;;;3.57;1.33;;;23.00;89.00;;;;;;6154250;23;20476;-69
2023/12/10 01:23:40;;;;;;;2.97;1.25;;;23.00;89.10;;;;;;6154050;23;20012;-69
2023/12/10 01:26:09;;;;;;;2.40;1.17;;;23.00;89.10;;;;;;6154816;23;20005;-69
2023/12/10 01:28:37;;;;;;;1.98;1.10;;;23.10;88.90;;;;;;6153895;23;20021;-69
2023/12/10 01:31:05;;;;;;;2.42;1.10;;;23.10;89.10;;;;;;6154412;23;20001;-69
2023/12/10 01:33:32;;;;;;;4.82;1.50;;;23.10;88.50;;;;;;6154128;23;20021;-69
2023/12/10 01:36:00;;;;;;;3.90;1.33;;;23.10;88.90;;;;;;6154057;23;20156;-69
2023/12/10 01:38:27;;;;;;;1.92;0.95;;;23.20;88.50;;;;;;6153850;23;20002;-69
2023/12/10 01:40:55;;;;;;;2.83;1.17;;;23.20;88.60;;;;;;6128389;23;20377;-69
2023/12/10 01:43:22;;;;;;;1.60;1.05;;;23.20;88.90;;;;;;6154515;23;20053;-69
2023/12/10 01:45:53;;;;;;;6.97;1.80;;;23.20;88.60;;;;;;6154330;23;20006;-69
2023/12/10 01:48:21;;;;;;;3.28;1.15;;;23.20;88.20;;;;;;6153840;23;20024;-69
2023/12/10 01:50:49;;;;;;;4.57;1.30;;;23.30;88.30;;;;;;6128784;23;20013;-69
2023/12/10 01:53:16;;;;;;;5.20;1.42;;;23.30;87.90;;;;;;6128141;23;20020;-68
2023/12/10 01:55:43;;;;;;;3.83;1.40;;;23.30;87.60;;;;;;6154043;23;20006;-69
2023/12/10 01:58:11;;;;;;;5.97;1.50;;;23.20;88.00;;;;;;6128264;23;20489;-70
2023/12/10 02:00:39;;;;;;;4.68;1.33;;;23.30;88.50;;;;;;6128327;23;20329;-70
2023/12/10 02:03:06;;;;;;;3.33;1.20;;;23.30;88.10;;;;;;6152075;23;20016;-69
2023/12/10 02:05:33;;;;;;;3.10;1.15;;;23.20;87.70;;;;;;6125149;23;20016;-70
2023/12/10 02:25:04;;;;;;;2.40;1.30;;;23.50;87.70;;;;;;6120151;23;20393;-69
2023/12/10 02:27:31;;;;;;;4.13;1.58;;;23.50;88.20;;;;;;6096957;23;20077;-69
2023/12/10 02:29:58;;;;;;;5.50;1.40;;;23.60;87.50;;;;;;6097163;23;20008;-67
2023/12/10 02:32:26;;;;;;;3.28;1.20;;;23.70;87.40;;;;;;6096824;23;20141;-68
2023/12/10 02:34:53;;;;;;;5.30;1.38;;;23.70;87.90;;;;;;6122879;23;20002;-68
2023/12/10 02:37:20;;;;;;;4.50;1.30;;;23.80;87.20;;;;;;6123415;23;20002;-68
2023/12/10 02:39:47;;;;;;;3.47;1.50;;;23.80;86.80;;;;;;6123086;23;20436;-69
2023/12/10 02:42:16;;;;;;;3.22;1.27;;;23.90;86.70;;;;;;6121267;23;20384;-68
2023/12/10 02:44:43;;;;;;;4.72;1.50;;;24.00;87.00;;;;;;6122723;23;20010;-68
2023/12/10 02:47:10;;;;;;;5.93;1.33;;;24.10;86.40;;;;;;6122948;23;20093;-68
2023/12/10 02:49:37;;;;;;;5.43;1.50;;;24.20;85.90;;;;;;6122718;23;20018;-68
2023/12/10 02:52:05;;;;;;;5.60;1.95;;;24.20;85.40;;;;;;6123043;23;20006;-68
2023/12/10 02:54:32;;;;;;;4.72;1.42;;;24.30;86.20;;;;;;6122742;23;20006;-69
2023/12/10 02:57:00;;;;;;;5.57;1.77;;;24.30;85.00;;;;;;6122539;23;20068;-67
2023/12/10 02:59:27;;;;;;;3.38;1.33;;;24.40;85.50;;;;;;6122716;23;20005;-67
2023/12/10 03:01:54;;;;;;;6.50;1.65;;;24.30;84.70;;;;;;6096570;23;20341;-66
2023/12/10 03:04:21;;;;;;;5.55;1.67;;;24.40;85.60;;;;;;6122310;23;20002;-67
2023/12/10 03:06:49;;;;;;;5.82;1.60;;;24.50;85.40;;;;;;6097247;23;20348;-66
2023/12/10 03:09:16;;;;;;;8.20;1.88;;;24.70;84.90;;;;;;6122436;23;20021;-67
2023/12/10 03:11:43;;;;;;;5.32;1.50;;;24.80;84.00;;;;;;6122227;23;20006;-67
2023/12/10 03:14:10;;;;;;;7.10;2.15;;;24.80;84.00;;;;;;6122442;23;20109;-67
2023/12/10 03:16:38;;;;;;;5.95;1.80;;;24.80;83.70;;;;;;6123211;23;20456;-66
2023/12/10 03:19:05;;;;;;;6.22;1.52;;;24.80;83.70;;;;;;6122098;23;20016;-67
2023/12/10 03:21:32;;;;;;;5.47;1.50;;;24.80;83.30;;;;;;6122819;23;20369;-68
2023/12/10 03:23:59;;;;;;;4.13;1.50;;;24.80;83.70;;;;;;6122232;23;20425;-67
2023/12/10 03:26:27;;;;;;;4.85;1.60;;;24.80;83.80;;;;;;6122155;23;20009;-67
2023/12/10 03:28:54;;;;;;;7.22;1.75;;;24.80;83.10;;;;;;6122639;23;20018;-67
2023/12/10 03:31:21;;;;;;;3.88;1.40;;;24.90;84.00;;;;;;6122807;23;20006;-67
2023/12/10 03:33:50;;;;;;;4.70;2.10;;;25.00;83.30;;;;;;6096500;23;20013;-67
2023/12/10 03:36:18;;;;;;;3.58;1.40;;;25.00;82.70;;;;;;6119740;23;20013;-67
2023/12/10 03:38:47;;;;;;;6.85;1.90;;;25.10;82.60;;;;;;6096002;23;20477;-67
2023/12/10 03:41:14;;;;;;;7.22;1.98;;;25.10;82.40;;;;;;6120352;23;20067;-68
2023/12/10 03:43:41;;;;;;;3.72;1.25;;;25.10;82.70;;;;;;6122895;23;20042;-66
2023/12/10 03:46:08;;;;;;;3.47;1.40;;;25.10;82.80;;;;;;6122847;23;20013;-67
2023/12/10 03:48:36;;;;;;;4.72;1.60;;;25.10;82.00;;;;;;6122494;23;20025;-68
2023/12/10 03:51:03;;;;;;;4.57;1.50;;;25.10;82.00;;;;;;6096626;23;20009;-67
2023/12/10 03:53:30;;;;;;;3.33;1.10;;;25.20;82.60;;;;;;6122892;23;20428;-68
2023/12/10 03:55:57;;;;;;;6.88;1.77;;;25.20;83.20;;;;;;6123302;23;20005;-68
2023/12/10 03:58:25;;;;;;;4.47;1.20;;;25.10;82.20;;;;;;6122976;23;20398;-68
2023/12/10 04:00:52;;;;;;;3.55;1.30;;;25.10;82.90;;;;;;6122628;23;20043;-68
2023/12/10 04:03:19;;;;;;;2.92;1.35;;;25.00;82.40;;;;;;6122522;23;20065;-67
2023/12/10 04:05:47;;;;;;;5.15;1.60;;;25.10;82.70;;;;;;6123271;23;20330;-69
2023/12/10 04:08:14;;;;;;;3.78;1.40;;;25.10;82.40;;;;;;6122517;23;20018;-67
2023/12/10 04:10:41;;;;;;;7.63;1.90;;;25.10;82.90;;;;;;6123055;23;20021;-68
2023/12/10 04:13:08;;;;;;;4.38;1.70;;;25.20;82.60;;;;;;6122802;23;20017;-68
2023/12/10 04:15:36;;;;;;;4.57;1.80;;;25.20;83.00;;;;;;6122588;23;20425;-68
2023/12/10 04:18:03;;;;;;;6.43;1.60;;;25.30;82.40;;;;;;6122537;23;20014;-68
2023/12/10 04:20:30;;;;;;;6.05;1.50;;;25.30;82.20;;;;;;6073321;23;20353;-69
2023/12/10 05:02:18;;;;;;;3.70;1.50;;;25.20;82.20;;;;;;6063720;23;20079;-70
2023/12/10 05:04:45;;;;;;;4.50;1.40;;;25.10;82.90;;;;;;6064290;23;20342;-68
2023/12/10 05:07:12;;;;;;;5.85;1.60;;;25.10;82.50;;;;;;6063775;23;20493;-71
2023/12/10 05:09:40;;;;;;;4.32;1.60;;;25.10;82.30;;;;;;6063692;23;20051;-67
2023/12/10 05:12:08;;;;;;;5.22;1.48;;;25.00;81.80;;;;;;6063089;23;20007;-74
2023/12/10 05:14:35;;;;;;;5.75;1.80;;;25.00;82.90;;;;;;6063277;23;20007;-69
2023/12/10 05:17:02;;;;;;;5.47;1.85;;;25.00;82.70;;;;;;6063814;23;20006;-72
2023/12/10 05:19:30;;;;;;;6.70;1.83;;;25.00;82.60;;;;;;6013835;23;20011;-70
2023/12/10 05:21:57;;;;;;;6.63;2.17;;;25.00;83.00;;;;;;6063332;23;20075;-69
2023/12/10 05:24:24;;;;;;;4.15;1.70;;;24.80;83.10;;;;;;6063673;23;20038;-71
2023/12/10 05:26:51;;;;;;;6.10;1.83;;;24.80;83.10;;;;;;6063436;23;20382;-69
2023/12/10 05:29:19;;;;;;;6.38;1.75;;;24.80;83.90;;;;;;6037428;23;20316;-70
2023/12/10 05:31:46;;;;;;;5.45;1.70;;;24.70;83.80;;;;;;6063863;23;20066;-67
2023/12/10 05:34:13;;;;;;;5.78;1.35;;;24.80;83.90;;;;;;6063786;23;20405;-68
2023/12/10 05:36:41;;;;;;;6.18;1.60;;;24.80;84.20;;;;;;6063215;23;20011;-67
2023/12/10 05:39:08;;;;;;;6.75;1.80;;;24.80;83.70;;;;;;6062960;23;20033;-68
2023/12/10 05:41:35;;;;;;;12.15;2.08;;;24.80;84.30;;;;;;6037031;23;20003;-65
2023/12/10 05:44:03;;;;;;;5.65;2.00;;;24.80;84.30;;;;;;6065031;23;20090;-66
2023/12/10 05:46:30;;;;;;;6.63;1.75;;;24.80;83.50;;;;;;6065015;23;20007;-68
2023/12/10 05:48:57;;;;;;;8.38;2.08;;;24.80;83.50;;;;;;6065968;23;20020;-68
2023/12/10 05:51:25;;;;;;;7.47;1.90;;;24.80;83.70;;;;;;6065695;23;20420;-69
2023/12/10 05:53:52;;;;;;;8.50;2.10;;;24.70;84.10;;;;;;6065659;23;20015;-68
2023/12/10 05:56:19;;;;;;;7.30;1.83;;;24.70;83.50;;;;;;6065642;23;20397;-68
2023/12/10 05:58:46;;;;;;;8.13;2.38;;;24.50;84.10;;;;;;6066031;23;20044;-68
2023/12/10 06:01:14;;;;;;;10.73;2.53;;;24.60;84.60;;;;;;6083474;23;20022;-68
2023/12/10 06:03:41;;;;;;;8.32;1.88;;;24.50;84.80;;;;;;6094205;23;20452;-68
2023/12/10 06:06:08;;;;;;;9.88;2.20;;;24.50;85.00;;;;;;6094487;23;20010;-69
2023/12/10 06:08:36;;;;;;;9.48;2.58;;;24.50;84.70;;;;;;6093139;23;20019;-67
2023/12/10 06:11:03;;;;;;;7.38;2.17;;;24.50;84.80;;;;;;6093960;23;19998;-69
2023/12/10 06:13:30;;;;;;;9.20;2.33;;;24.40;84.80;;;;;;6093558;23;20433;-69
2023/12/10 06:15:57;;;;;;;13.13;2.40;;;24.40;84.80;;;;;;6093794;23;20003;-69
2023/12/10 06:18:25;;;;;;;8.38;2.00;;;24.40;85.30;;;;;;6093909;23;20050;-70
2023/12/10 06:20:53;;;;;;;7.25;2.10;;;24.40;85.40;;;;;;6093766;23;20433;-71
2023/12/10 06:23:20;;;;;;;6.85;2.40;;;24.40;85.10;;;;;;6093262;23;20094;-69
2023/12/10 06:25:47;;;;;;;12.38;3.13;;;24.40;85.10;;;;;;6094361;23;20006;-69
2023/12/10 06:28:14;;;;;;;8.98;2.63;;;24.30;85.20;;;;;;6092872;23;20030;-69
2023/12/10 06:30:42;;;;;;;7.80;2.50;;;24.30;85.40;;;;;;6094654;23;20319;-69
2023/12/10 06:33:09;;;;;;;9.88;2.63;;;24.30;85.70;;;;;;6093478;23;20366;-68
2023/12/10 06:35:36;;;;;;;8.18;2.47;;;24.30;85.20;;;;;;6068099;23;20003;-69
2023/12/10 06:38:04;;;;;;;7.22;2.10;;;24.30;85.60;;;;;;6093308;23;20070;-68
2023/12/10 06:40:31;;;;;;;9.95;3.83;;;24.30;85.70;;;;;;6091766;23;20085;-68
2023/12/10 06:42:58;;;;;;;11.00;4.22;;;24.30;85.40;;;;;;6093708;23;20010;-67
2023/12/10 06:45:25;;;;;;;13.73;6.13;;;24.30;85.10;;;;;;6093595;23;20006;-68
2023/12/10 06:47:55;;;;;;;17.70;6.65;;;24.30;85.30;;;;;;6068144;23;20006;-67
2023/12/10 06:50:23;;;;;;;12.13;7.50;;;24.30;85.40;;;;;;6093670;23;20010;-67
2023/12/10 06:52:50;;;;;;;15.73;8.10;;;24.30;85.30;;;;;;6092776;23;20062;-68
2023/12/10 06:55:17;;;;;;;13.05;7.75;;;24.30;85.00;;;;;;6093092;23;20022;-67
2023/12/10 06:57:44;;;;;;;16.98;9.10;;;24.30;85.20;;;;;;6094135;23;20043;-67
2023/12/10 07:00:12;;;;;;;16.13;9.25;;;24.30;85.10;;;;;;6093807;23;20010;-67
2023/12/10 07:02:40;;;;;;;18.13;11.35;;;24.30;84.90;;;;;;6093184;23;20021;-67
2023/12/10 07:05:07;;;;;;;19.15;12.65;;;24.30;84.50;;;;;;6093114;23;20397;-69
2023/12/10 07:07:35;;;;;;;19.58;11.55;;;24.30;84.50;;;;;;6093713;23;20410;-70
2023/12/10 07:10:02;;;;;;;18.38;11.70;;;24.30;84.40;;;;;;6093743;23;20042;-67
2023/12/10 07:12:29;;;;;;;17.55;11.60;;;24.30;84.40;;;;;;6067659;23;20006;-68
2023/12/10 07:14:56;;;;;;;20.63;11.23;;;24.30;84.60;;;;;;6093591;23;20006;-67
2023/12/10 07:17:24;;;;;;;19.75;10.57;;;24.20;84.60;;;;;;6093503;23;20006;-69
2023/12/10 07:19:51;;;;;;;16.35;10.88;;;24.20;84.70;;;;;;6093480;23;20030;-68
2023/12/10 07:22:18;;;;;;;18.73;11.23;;;24.10;84.60;;;;;;6093218;23;20445;-67
2023/12/10 07:24:45;;;;;;;18.17;10.55;;;24.20;85.00;;;;;;6068129;23;20003;-66
2023/12/10 07:27:13;;;;;;;15.52;10.40;;;24.20;84.80;;;;;;6093683;23;20036;-66
2023/12/10 07:29:40;;;;;;;19.83;12.45;;;24.20;84.80;;;;;;6092752;23;20033;-67
2023/12/10 07:32:07;;;;;;;18.27;11.25;;;24.20;83.50;;;;;;6092793;23;20013;-67
2023/12/10 07:34:35;;;;;;;14.30;10.27;;;24.20;83.50;;;;;;6093304;23;20314;-67
2023/12/10 07:37:02;;;;;;;16.58;11.38;;;24.30;83.10;;;;;;6093492;23;20451;-66
2023/12/10 07:39:29;;;;;;;16.05;11.38;;;24.20;82.50;;;;;;6092940;23;20007;-67
2023/12/10 07:41:58;;;;;;;20.50;11.63;;;24.30;82.50;;;;;;6090967;23;20066;-66
2023/12/10 07:44:26;;;;;;;16.40;10.77;;;24.20;82.60;;;;;;6093295;23;20066;-68
2023/12/10 07:46:53;;;;;;;17.30;10.32;;;24.20;82.50;;;;;;6092901;23;20257;-68
2023/12/10 07:49:20;;;;;;;15.90;10.27;;;24.20;82.80;;;;;;6092818;23;20346;-68
2023/12/10 07:51:47;;;;;;;19.63;10.05;;;24.20;82.50;;;;;;6067560;23;20449;-67
2023/12/10 07:54:15;;;;;;;15.95;9.32;;;24.20;82.80;;;;;;6093285;23;20496;-66
2023/12/10 07:56:42;;;;;;;16.80;9.07;;;24.20;82.70;;;;;;6093367;23;20085;-67
2023/12/10 07:59:09;;;;;;;20.00;9.70;;;24.10;83.00;;;;;;6092928;23;20010;-67
2023/12/10 08:01:36;;;;;;;20.90;10.32;;;24.10;83.30;;;;;;6092490;23;20090;-67
2023/12/10 08:04:04;;;;;;;18.98;9.30;;;24.10;83.50;;;;;;6092186;23;20105;-67
2023/12/10 08:06:31;;;;;;;18.38;9.82;;;24.10;83.60;;;;;;6093312;23;20006;-67
2023/12/10 08:08:59;;;;;;;19.13;9.45;;;24.10;83.80;;;;;;6093297;23;20015;-67
2023/12/10 08:11:26;;;;;;;16.05;8.60;;;24.10;84.10;;;;;;6067728;23;20445;-67
2023/12/10 08:13:54;;;;;;;19.65;9.40;;;24.10;84.10;;;;;;6093248;23;20003;-67
2023/12/10 08:16:21;;;;;;;20.98;8.80;;;24.10;84.10;;;;;;6093087;23;20034;-67
2023/12/10 08:18:50;;;;;;;22.27;9.15;;;24.10;84.20;;;;;;6092987;23;20123;-67
2023/12/10 08:21:17;;;;;;;19.48;8.20;;;24.10;84.30;;;;;;6092882;23;20038;-67
2023/12/10 08:23:45;;;;;;;18.95;8.13;;;24.10;84.50;;;;;;6092823;23;20093;-67
2023/12/10 08:26:12;;;;;;;19.02;8.10;;;24.00;84.40;;;;;;6092468;23;20011;-67
2023/12/10 08:28:39;;;;;;;17.95;7.22;;;24.10;84.70;;;;;;6092574;23;20336;-67
2023/12/10 08:31:06;;;;;;;16.25;7.85;;;24.00;84.70;;;;;;6092575;23;20012;-68
2023/12/10 08:33:34;;;;;;;17.63;7.65;;;24.00;84.70;;;;;;6092697;23;20010;-67
2023/12/10 08:36:01;;;;;;;15.95;7.35;;;24.10;84.80;;;;;;6092307;23;20361;-67
2023/12/10 08:38:29;;;;;;;17.13;7.18;;;24.00;84.60;;;;;;6092479;23;20013;-67
2023/12/10 08:40:56;;;;;;;13.40;6.80;;;24.00;84.80;;;;;;6064391;23;20010;-67
2023/12/10 08:43:23;;;;;;;15.73;7.70;;;23.90;84.80;;;;;;6091942;23;20401;-66
2023/12/10 08:45:50;;;;;;;13.23;6.95;;;23.90;84.70;;;;;;6092768;23;20006;-67
2023/12/10 08:48:18;;;;;;;10.32;5.50;;;24.00;84.70;;;;;;6091830;23;20021;-66
2023/12/10 08:50:45;;;;;;;11.30;4.50;;;23.90;84.00;;;;;;6066669;23;20433;-68
2023/12/10 08:53:12;;;;;;;14.10;4.65;;;23.90;83.70;;;;;;6092791;23;20003;-68
2023/12/10 08:55:39;;;;;;;11.23;4.53;;;23.90;83.80;;;;;;6092936;23;20342;-68
2023/12/10 08:58:07;;;;;;;13.70;4.95;;;23.90;83.80;;;;;;6092438;23;20010;-67
2023/12/10 09:00:34;;;;;;;12.18;4.63;;;23.90;83.90;;;;;;6091283;23;20058;-67
2023/12/10 09:03:01;;;;;;;14.50;5.07;;;23.80;83.90;;;;;;6092310;23;20349;-68
2023/12/10 09:05:28;;;;;;;15.13;5.40;;;23.90;84.00;;;;;;6092426;23;20319;-68
2023/12/10 09:07:56;;;;;;;12.82;4.35;;;23.80;84.30;;;;;;6092139;23;20512;-69
2023/12/10 09:10:23;;;;;;;16.40;4.60;;;23.80;84.40;;;;;;6067077;23;20077;-69
2023/12/10 09:12:51;;;;;;;17.60;4.10;;;23.80;84.70;;;;;;6092152;23;20018;-69
2023/12/10 09:15:18;;;;;;;14.00;4.45;;;23.80;84.70;;;;;;6092172;23;20014;-69
2023/12/10 09:17:45;;;;;;;16.25;4.25;;;23.80;84.50;;;;;;6092349;23;20438;-68
2023/12/10 09:20:12;;;;;;;14.45;4.50;;;23.80;84.50;;;;;;6091997;23;20006;-69
2023/12/10 09:22:41;;;;;;;14.38;4.50;;;23.70;84.40;;;;;;6092378;23;20378;-68
2023/12/10 09:25:09;;;;;;;12.75;4.25;;;23.80;84.40;;;;;;6091546;23;20544;-68
2023/12/10 09:27:36;;;;;;;17.08;4.53;;;23.80;84.60;;;;;;6091835;23;20026;-68
2023/12/10 09:30:03;;;;;;;13.73;4.80;;;23.80;84.70;;;;;;6092579;23;20013;-67
2023/12/10 09:32:30;;;;;;;13.30;4.80;;;23.70;84.90;;;;;;6092217;23;20081;-68
2023/12/10 09:35:01;;;;;;;14.25;3.92;;;23.70;85.20;;;;;;6091355;23;20422;-67
2023/12/10 09:37:29;;;;;;;12.65;4.47;;;23.70;85.00;;;;;;6092549;23;20006;-69
2023/12/10 09:39:56;;;;;;;13.57;4.50;;;23.70;84.90;;;;;;6092867;23;20018;-69
2023/12/10 09:42:23;;;;;;;12.65;4.55;;;23.70;84.90;;;;;;6089841;23;20459;-72
2023/12/10 09:44:51;;;;;;;10.23;4.50;;;23.70;84.90;;;;;;6092581;23;20034;-68
2023/12/10 09:47:18;;;;;;;14.50;4.32;;;23.70;85.10;;;;;;6091960;23;20002;-68
2023/12/10 09:49:45;;;;;;;13.90;4.72;;;23.70;85.10;;;;;;6062603;23;20452;-66
2023/12/10 09:52:13;;;;;;;14.90;4.22;;;23.70;85.30;;;;;;6036955;23;20014;-70
2023/12/10 09:54:41;;;;;;;12.68;3.92;;;23.70;85.20;;;;;;6088067;23;20018;-70
2023/12/10 09:57:11;;;;;;;15.93;4.70;;;23.70;85.40;;;;;;6092537;23;20093;-70
2023/12/10 09:59:38;;;;;;;18.05;4.60;;;23.70;85.30;;;;;;6091915;23;20013;-67
2023/12/10 10:02:06;;;;;;;12.80;4.13;;;23.70;85.40;;;;;;6091615;23;20030;-72
2023/12/10 10:04:33;;;;;;;15.27;4.93;;;23.70;85.60;;;;;;6091929;23;20010;-69
2023/12/10 10:07:02;;;;;;;18.15;4.75;;;23.70;85.80;;;;;;6092196;23;20429;-69
2023/12/10 10:09:29;;;;;;;13.45;4.18;;;23.70;85.90;;;;;;6070858;23;20030;-69
2023/12/10 10:11:57;;;;;;;12.85;4.00;;;23.70;85.90;;;;;;6121336;23;20010;-71
2023/12/10 10:14:24;;;;;;;14.98;4.03;;;23.70;86.10;;;;;;6121421;23;20082;-70
2023/12/10 10:16:51;;;;;;;15.77;4.22;;;23.70;86.00;;;;;;6121922;23;20006;-68
2023/12/10 10:19:19;;;;;;;10.18;3.67;;;23.70;86.30;;;;;;6121999;23;20006;-71
2023/12/10 10:21:46;;;;;;;17.50;4.30;;;23.70;86.50;;;;;;6120990;23;20021;-67
2023/12/10 10:24:14;;;;;;;15.35;3.80;;;23.70;86.60;;;;;;6120843;23;20345;-67
2023/12/10 10:26:41;;;;;;;13.02;3.95;;;23.70;86.70;;;;;;6120680;23;20085;-68
2023/12/10 10:29:08;;;;;;;15.80;3.60;;;23.70;86.70;;;;;;6122449;23;20024;-70
2023/12/10 10:31:36;;;;;;;12.70;3.55;;;23.70;86.70;;;;;;6120625;23;19998;-71
2023/12/10 10:34:04;;;;;;;15.65;4.55;;;23.70;86.90;;;;;;6121856;23;20013;-69
2023/12/10 10:36:34;;;;;;;17.42;4.15;;;23.70;86.80;;;;;;6096683;23;20017;-70
2023/12/10 10:39:01;;;;;;;16.45;4.70;;;23.70;86.80;;;;;;6096848;23;20010;-69
2023/12/10 10:41:29;;;;;;;15.43;4.07;;;23.70;86.90;;;;;;6094297;23;20010;-69
2023/12/10 10:43:58;;;;;;;14.55;3.70;;;23.70;87.00;;;;;;6073042;23;20017;-69
2023/12/10 10:46:26;;;;;;;15.90;4.38;;;23.70;87.10;;;;;;6122762;23;20065;-69
2023/12/10 10:48:53;;;;;;;15.70;3.97;;;23.70;87.10;;;;;;6122563;23;20018;-69
2023/12/10 10:51:25;;;;;;;19.75;3.80;;;23.70;87.30;;;;;;6097142;23;20089;-69
2023/12/10 10:53:56;;;;;;;15.65;3.38;;;23.60;87.30;;;;;;6094910;23;20014;-69
2023/12/10 10:56:24;;;;;;;16.90;4.00;;;23.70;87.30;;;;;;6122522;23;20009;-69
2023/12/10 10:58:51;;;;;;;13.75;2.92;;;23.70;87.50;;;;;;6096488;23;20073;-69
2023/12/10 11:01:41;;;;;;;15.45;3.70;;;23.70;87.20;;;;;;6072240;23;20014;-69
2023/12/10 11:04:16;;;;;;;14.65;3.40;;;23.70;87.20;;;;;;6121992;23;20017;-69
2023/12/10 11:45:40;;;;;;;14.63;2.63;;;23.70;85.90;;;;;;6117641;23;20096;-68
2023/12/10 11:48:07;;;;;;;19.58;3.00;;;23.70;85.80;;;;;;6092300;23;20015;-68
2023/12/10 11:50:36;;;;;;;11.93;3.10;;;23.70;85.80;;;;;;6092578;23;20066;-68
2023/12/10 11:53:04;;;;;;;17.57;3.20;;;23.70;85.80;;;;;;6092725;23;20003;-68
2023/12/10 11:55:31;;;;;;;16.73;2.75;;;23.70;86.00;;;;;;6092008;23;20033;-69
2023/12/10 11:57:59;;;;;;;13.90;3.17;;;23.60;86.10;;;;;;6069940;23;20022;-69
2023/12/10 12:00:26;;;;;;;11.93;2.67;;;23.60;85.80;;;;;;6070505;23;20006;-68
2023/12/10 12:02:53;;;;;;;13.85;2.50;;;23.60;85.80;;;;;;6096393;23;20460;-68
2023/12/10 12:05:21;;;;;;;13.43;2.90;;;23.60;86.00;;;;;;6096431;23;20034;-68
2023/12/10 12:07:51;;;;;;;14.20;3.00;;;23.60;86.10;;;;;;6096581;23;20442;-68
2023/12/10 12:10:18;;;;;;;13.95;2.60;;;23.60;86.10;;;;;;6071172;23;20404;-68
2023/12/10 12:12:46;;;;;;;13.98;2.78;;;23.70;86.20;;;;;;6095943;23;20078;-68
2023/12/10 12:15:15;;;;;;;15.85;2.75;;;23.60;86.30;;;;;;6119305;23;20334;-68
2023/12/10 12:17:43;;;;;;;15.27;2.60;;;23.60;86.40;;;;;;6096643;23;20394;-68
2023/12/10 12:20:18;;;;;;;14.20;2.70;;;23.60;86.50;;;;;;6096133;23;20283;-68
2023/12/10 12:22:45;;;;;;;13.30;2.53;;;23.60;86.30;;;;;;6095923;23;20452;-68
2023/12/10 12:25:13;;;;;;;15.68;2.80;;;23.60;86.20;;;;;;6094195;23;20038;-68
2023/12/10 12:27:40;;;;;;;12.43;2.50;;;23.60;86.30;;;;;;6117886;23;20119;-68
2023/12/10 12:30:08;;;;;;;11.10;2.85;;;23.60;86.30;;;;;;6070717;23;20049;-68
2023/12/10 12:32:36;;;;;;;10.73;2.33;;;23.60;86.30;;;;;;6095330;23;20014;-68
2023/12/10 12:35:03;;;;;;;11.48;2.45;;;23.50;86.30;;;;;;6095126;23;20013;-68
2023/12/10 12:37:30;;;;;;;14.32;2.50;;;23.50;86.50;;;;;;6093924;23;20010;-68
2023/12/10 12:39:58;;;;;;;13.85;2.45;;;23.50;86.50;;;;;;6095523;23;20074;-68
2023/12/10 12:42:25;;;;;;;16.08;2.80;;;23.50;86.50;;;;;;6070623;23;20444;-68
2023/12/10 12:44:52;;;;;;;14.73;3.20;;;23.50;86.20;;;;;;6096555;23;20433;-68
2023/12/10 12:47:20;;;;;;;15.50;2.58;;;23.50;86.20;;;;;;6115884;23;20350;-68
2023/12/10 12:49:47;;;;;;;18.23;2.50;;;23.50;86.20;;;;;;6125351;23;20052;-68
2023/12/10 12:52:15;;;;;;;14.13;2.83;;;23.50;86.00;;;;;;6125360;23;19998;-68
2023/12/10 12:54:42;;;;;;;12.45;2.58;;;23.50;86.00;;;;;;6124847;23;20002;-68
2023/12/10 12:57:11;;;;;;;10.02;2.50;;;23.50;86.10;;;;;;6124984;23;20012;-68
2023/12/10 12:59:38;;;;;;;11.98;2.72;;;23.50;86.20;;;;;;6124833;23;20042;-68
2023/12/10 13:02:06;;;;;;;14.07;2.67;;;23.50;86.20;;;;;;6125242;23;20006;-68
2023/12/10 13:04:34;;;;;;;15.73;3.00;;;23.50;86.20;;;;;;6124918;23;20105;-69
2023/12/10 13:07:01;;;;;;;16.63;3.08;;;23.40;86.10;;;;;;6098823;23;20404;-68
2023/12/10 13:09:29;;;;;;;13.50;3.10;;;23.40;86.20;;;;;;6124857;23;20018;-68
2023/12/10 13:11:59;;;;;;;16.20;2.67;;;23.40;86.00;;;;;;6125550;23;20014;-68
2023/12/10 13:14:27;;;;;;;15.43;2.90;;;23.40;86.00;;;;;;6125426;23;20425;-68
2023/12/10 13:16:54;;;;;;;13.05;2.60;;;23.40;86.00;;;;;;6124755;23;20009;-68
2023/12/10 13:19:21;;;;;;;15.48;2.85;;;23.40;85.90;;;;;;6124528;23;20328;-68
2023/12/10 13:21:51;;;;;;;16.35;2.90;;;23.40;86.00;;;;;;6125430;23;20014;-68
2023/12/10 13:24:18;;;;;;;;;;;23.30;86.00;;;;;;6125294;23;20395;-68
2023/12/10 13:26:45;;;;;;;16.67;3.08;;;23.30;85.80;;;;;;6125550;23;19909;-68
2023/12/10 13:29:12;;;;;;;17.42;2.63;;;23.30;85.90;;;;;;6125309;23;20017;-68
2023/12/10 13:31:40;;;;;;;13.82;2.78;;;23.40;85.90;;;;;;6125282;23;20010;-68
2023/12/10 13:34:07;;;;;;;13.13;2.60;;;23.30;85.90;;;;;;6125352;23;20005;-69
2023/12/10 13:36:35;;;;;;;12.63;2.95;;;23.30;86.00;;;;;;6124795;23;20009;-68
2023/12/10 13:39:03;;;;;;;17.92;2.63;;;23.30;86.00;;;;;;6125161;23;20010;-68
2023/12/10 13:41:30;;;;;;;19.42;2.83;;;23.30;85.90;;;;;;6125407;23;20333;-68
2023/12/10 13:43:57;;;;;;;16.20;2.60;;;23.30;85.80;;;;;;6124868;23;20314;-68
2023/12/10 13:46:26;;;;;;;13.65;2.80;;;23.30;85.90;;;;;;6124870;23;20018;-68
2023/12/10 13:48:53;;;;;;;20.63;2.58;;;23.30;85.90;;;;;;6125041;23;20345;-68
2023/12/10 13:51:20;;;;;;;14.35;3.05;;;23.30;85.90;;;;;;6125491;23;20013;-68
2023/12/10 13:53:48;;;;;;;15.43;3.00;;;23.30;86.20;;;;;;6124843;23;20029;-68
2023/12/10 13:56:15;;;;;;;12.82;2.45;;;23.20;86.50;;;;;;6099705;23;20002;-68
2023/12/10 13:58:42;;;;;;;16.88;2.88;;;23.10;86.40;;;;;;6124951;23;20441;-68
2023/12/10 14:01:10;;;;;;;16.25;3.20;;;23.10;86.70;;;;;;6124824;23;20021;-69
2023/12/10 14:03:37;;;;;;;16.50;2.90;;;23.10;86.90;;;;;;6126157;23;20013;-68
2023/12/10 14:06:04;;;;;;;19.67;3.30;;;23.10;86.70;;;;;;6127273;23;20005;-68
2023/12/10 14:08:32;;;;;;;16.88;2.92;;;23.10;86.50;;;;;;6126289;23;20326;-68
2023/12/10 14:10:59;;;;;;;17.60;3.22;;;23.00;86.90;;;;;;6101234;23;20013;-68
2023/12/10 14:13:27;;;;;;;9.13;2.80;;;23.00;87.00;;;;;;6126796;23;20073;-68
2023/12/10 14:15:55;;;;;;;13.88;3.42;;;23.00;87.00;;;;;;6101806;23;20010;-68
2023/12/10 14:18:22;;;;;;;14.52;2.90;;;23.00;86.90;;;;;;6127021;23;20013;-68